WetterOnline ( https://www.wetteronline.at )

Wetter aktuell Leipzig

Aktuelles Wetter: Leipzig-Holzhausen (138m)

6-stündlich | Neueste Meldungen
Ortszeit Temperatur Wetter
Di, 14.07. 14:00 26.3° C wolkig
Di, 14.07. 8:00 18.0° C leicht bewölkt
Di, 14.07. 2:00 12.6° C wolkenlos
Mo, 13.07. 20:00 24.4° C leicht bewölkt
Mo, 13.07. 14:00 22.9° C wolkenlos
Mo, 13.07. 8:00 15.5° C wolkenlos
Mo, 13.07. 2:00 10.1° C wolkig
So, 12.07. 20:00 20.2° C leicht bewölkt
Ortszeit Temperatur Wetter
Di, 14.07. 18:30 25.9° C wolkig
Di, 14.07. 18:20 25.9° C wolkig
Di, 14.07. 18:10 26.1° C bewölkt
Di, 14.07. 18:00 27.0° C wolkig
Di, 14.07. 17:50 27.0° C wolkig
Di, 14.07. 17:40 27.3° C bewölkt
Di, 14.07. 17:30 27.5° C bewölkt
Di, 14.07. 17:00 26.5° C bedeckt
Di, 14.07. 16:30 27.7° C bedeckt
Di, 14.07. 16:00 27.6° C bewölkt
Di, 14.07. 15:30 26.4° C bedeckt
Ortszeit Relative Feuchte Sichtweite
Di, 14.07. 14:00 28% 60 km
Di, 14.07. 8:00 56% 60 km
Di, 14.07. 2:00 72% 60 km
Mo, 13.07. 20:00 28% >70 km
Mo, 13.07. 14:00 31% -
Mo, 13.07. 8:00 59% 60 km
Mo, 13.07. 2:00 78% 70 km
So, 12.07. 20:00 37% 70 km
Ortszeit Relative Feuchte Sichtweite
Di, 14.07. 18:30 28% 65 km
Di, 14.07. 18:20 28% -
Di, 14.07. 18:10 28% -
Di, 14.07. 18:00 25% 40 km
Di, 14.07. 17:50 25% -
Di, 14.07. 17:40 24% -
Di, 14.07. 17:30 24% 55 km
Di, 14.07. 17:00 27% >70 km
Di, 14.07. 16:30 24% >70 km
Di, 14.07. 16:00 24% 65 km
Di, 14.07. 15:30 27% 45 km
Ortszeit Niederschlagsmenge Niederschlagsart
Di, 14.07. 14:00 0.0 l/m2 in 6 Std. -
Di, 14.07. 8:00 0.0 l/m2 in 12 Std. -
Di, 14.07. 2:00 0.0 l/m2 in 6 Std. -
Mo, 13.07. 20:00 0.0 l/m2 in 12 Std. -
Mo, 13.07. 14:00 0.0 l/m2 in 6 Std. -
Mo, 13.07. 8:00 0.0 l/m2 in 12 Std. -
Mo, 13.07. 2:00 0.0 l/m2 in 6 Std. -
So, 12.07. 20:00 0.0 l/m2 in 12 Std. -
Ortszeit Niederschlagsmenge Niederschlagsart
Di, 14.07. 18:30 0.0 l/m2 in 1 Std. -
Di, 14.07. 18:20 keine Meldung -
Di, 14.07. 18:10 keine Meldung -
Di, 14.07. 18:00 0.0 l/m2 in 1 Std. -
Di, 14.07. 17:50 keine Meldung -
Di, 14.07. 17:40 keine Meldung -
Di, 14.07. 17:30 0.0 l/m2 in 1 Std. -
Di, 14.07. 17:00 0.0 l/m2 in 1 Std. -
Di, 14.07. 16:30 0.0 l/m2 in 1 Std. -
Di, 14.07. 16:00 0.0 l/m2 in 1 Std. -
Di, 14.07. 15:30 0.0 l/m2 in 1 Std. -
Ortszeit Stärke Spitze Richtung
km/h Bft. km/h Grad Sektor
Di, 14.07. 14:00 9 2 22 180° S
Di, 14.07. 8:00 7 2 18 190° S
Di, 14.07. 2:00 4 1 11 120° SO
Mo, 13.07. 20:00 6 1 19 250° W
Mo, 13.07. 14:00 9 2 19 20° N
Mo, 13.07. 8:00 4 1 7 140° SO
Mo, 13.07. 2:00 4 1 14 60° NO
So, 12.07. 20:00 7 2 25 10° N
Ortszeit Stärke Spitze Richtung
km/h Bft. km/h Grad Sektor
Di, 14.07. 18:30 9 2 19 260° W
Di, 14.07. 18:20 9 2 - 260° W
Di, 14.07. 18:10 11 2 - 240° SW
Di, 14.07. 18:00 11 2 22 190° S
Di, 14.07. 17:50 11 2 - 190° S
Di, 14.07. 17:40 11 2 - 190° S
Di, 14.07. 17:30 11 2 22 180° S
Di, 14.07. 17:00 6 1 22 190° S
Di, 14.07. 16:30 11 2 22 230° SW
Di, 14.07. 16:00 11 2 25 220° SW
Di, 14.07. 15:30 7 2 14 170° S
Ortszeit Untergrenze Bedeckung Gattung
total tief tief mittel hoch
Di, 14.07. 14:00 3000 m 8/8 3/8 - - -
Di, 14.07. 8:00 10500 m 3/8 0/8 - - -
Di, 14.07. 2:00 - 0/8 0/8 - - -
Mo, 13.07. 20:00 7200 m 3/8 0/8 - - -
Mo, 13.07. 14:00 - 0/8 0/8 - - -
Mo, 13.07. 8:00 10500 m 0/8 0/8 - - -
Mo, 13.07. 2:00 9000 m 8/8 0/8 - - -
So, 12.07. 20:00 2100 m 3/8 3/8 - - -
Ortszeit Bedeckungsgrad in Achtel und Wolkenuntergrenze
Di, 14.07. 18:30 3(3600m) 8(8100m) 8(8700m)
Di, 14.07. 18:20 3(3600m) 8(8100m) 8(8700m)
Di, 14.07. 18:10 4(3600m) 8(7800m) 8(8700m)
Di, 14.07. 18:00 3(2700m) 8(3600m) 8(9000m)
Di, 14.07. 17:50 3(2700m) 8(3600m)
Di, 14.07. 17:40 5(2700m) 8(3600m)
Di, 14.07. 17:30 6(2700m) 8(3300m)
Di, 14.07. 17:00 6(3300m) 8(6300m) 8(8400m)
Di, 14.07. 16:30 8(6000m) 8(9000m) 8(10500m)
Di, 14.07. 16:00 7(3300m) 7(6600m) 7(7200m)
Di, 14.07. 15:30 8(3000m)
Ortszeit Luftdruck NN (hPa) Tendenz (hPa in 3 Std.)
Di, 14.07. 14:00 1013 - 1,7
Di, 14.07. 8:00 1017 - 0,4
Di, 14.07. 2:00 1018 - 1,0
Mo, 13.07. 20:00 1019 - 1,5
Mo, 13.07. 14:00 1023 - 2,0
Mo, 13.07. 8:00 1026 - 0,2
Mo, 13.07. 2:00 1027 + 0,1
So, 12.07. 20:00 1026 - 0,3
Ortszeit Luftdruck NN (hPa) Tendenz (hPa in 3 Std.)
Di, 14.07. 18:30 1011 - 1,3
Di, 14.07. 18:20 1011 keine Meldung
Di, 14.07. 18:10 1011 keine Meldung
Di, 14.07. 18:00 1011 - 1,5
Di, 14.07. 17:50 1011 keine Meldung
Di, 14.07. 17:40 1011 keine Meldung
Di, 14.07. 17:30 1011 - 1,7
Di, 14.07. 17:00 1012 - 1,6
Di, 14.07. 16:30 1012 - 1,7
Di, 14.07. 16:00 1012 - 1,9
Di, 14.07. 15:30 1012 - 1,7
Ortszeit Schneehöhe (cm)
Di, 14.07. 14:00 -
Di, 14.07. 8:00 -
Di, 14.07. 2:00 -
Mo, 13.07. 20:00 -
Mo, 13.07. 14:00 -
Mo, 13.07. 8:00 -
Mo, 13.07. 2:00 -
So, 12.07. 20:00 -
Ortszeit Schneehöhe (cm)
Di, 14.07. 18:30 -
Di, 14.07. 18:20 -
Di, 14.07. 18:10 -
Di, 14.07. 18:00 -
Di, 14.07. 17:50 -
Di, 14.07. 17:40 -
Di, 14.07. 17:30 -
Di, 14.07. 17:00 -
Di, 14.07. 16:30 -
Di, 14.07. 16:00 -
Di, 14.07. 15:30 -
Link zu dieser Seite / Seite empfehlen

Das Wetter in ...